Time;durP1;ratioP1;P1;durP2;ratioP2;P2;SDS_P1;SDS_P2;PMS_P1;PMS_P2;Temp;Humidity;BMP_temperature;BMP_pressure;BME280_temperature;BME280_humidity;BME280_pressure;Samples;Min_cycle;Max_cycle;Signal;HPM_P1;HPM_P2
2022/11/11 00:01:07;;;;;;;0.07;0.07;;;;;;;;;;6146106;23;20013;-79
2022/11/11 00:03:33;;;;;;;0.00;0.00;;;;;;;;;;6137586;23;20059;-79
2022/11/11 00:06:00;;;;;;;0.63;0.63;;;;;;;;;;6108280;23;20014;-79
2022/11/11 00:08:26;;;;;;;0.00;0.00;;;;;;;;;;6135232;23;20025;-78
2022/11/11 00:10:53;;;;;;;0.70;0.67;;;;;;;;;;6130749;23;20030;-79
2022/11/11 00:13:19;;;;;;;0.30;0.30;;;;;;;;;;6128667;23;19999;-80
2022/11/11 00:15:45;;;;;;;1.10;1.00;;;;;;;;;;6136241;23;20005;-79
2022/11/11 00:26:28;;;;;;;0.00;0.00;;;;;;;;;;6129546;23;20060;-78
2022/11/11 00:28:54;;;;;;;0.00;0.00;;;;;;;;;;6101878;23;20002;-79
2022/11/11 00:31:20;;;;;;;0.00;0.00;;;;;;;;;;6127259;23;20002;-79
2022/11/11 00:33:47;;;;;;;1.17;1.07;;;;;;;;;;6126875;23;20041;-79
2022/11/11 00:36:13;;;;;;;0.10;0.10;;;;;;;;;;6100948;23;20012;-80
2022/11/11 00:38:44;;;;;;;0.00;0.00;;;;;;;;;;6127375;23;20069;-80
2022/11/11 00:41:10;;;;;;;0.00;0.00;;;;;;;;;;6126408;23;19998;-80
2022/11/11 00:43:37;;;;;;;0.20;0.20;;;;;;;;;;6127684;23;20025;-79
2022/11/11 00:51:34;;;;;;;0.00;0.00;;;;;;;;;;6127618;23;20064;-78
2022/11/11 00:54:00;;;;;;;0.00;0.00;;;;;;;;;;6101918;23;20006;-78
2022/11/11 00:56:26;;;;;;;0.00;0.00;;;;;;;;;;6128149;23;20006;-78
2022/11/11 00:58:53;;;;;;;0.00;0.00;;;;;;;;;;6128185;23;20081;-78
2022/11/11 01:01:19;;;;;;;0.00;0.00;;;;;;;;;;6125420;23;20002;-78
2022/11/11 01:03:46;;;;;;;0.20;0.20;;;;;;;;;;6127557;23;20009;-79
2022/11/11 01:06:12;;;;;;;0.13;0.13;;;;;;;;;;6101050;23;20012;-79
2022/11/11 01:08:39;;;;;;;0.30;0.30;;;;;;;;;;6100758;23;20064;-79
2022/11/11 01:11:16;;;;;;;0.00;0.00;;;;;;;;;;6127881;23;20009;-79
2022/11/11 01:13:43;;;;;;;0.00;0.00;;;;;;;;;;6100601;23;20065;-79
2022/11/11 01:16:15;;;;;;;0.27;0.17;;;;;;;;;;6100657;23;20033;-79
2022/11/11 01:18:41;;;;;;;0.00;0.00;;;;;;;;;;6101532;23;20400;-79
2022/11/11 01:21:10;;;;;;;0.00;0.00;;;;;;;;;;6127507;23;20014;-79
2022/11/11 01:23:38;;;;;;;4.43;4.23;;;;;;;;;;6101082;23;20018;-79
2022/11/11 01:26:06;;;;;;;0.00;0.00;;;;;;;;;;6101095;23;20413;-79
2022/11/11 01:28:32;;;;;;;0.30;0.30;;;;;;;;;;6127616;23;19998;-79
2022/11/11 01:31:03;;;;;;;0.00;0.00;;;;;;;;;;6127642;23;20446;-79
2022/11/11 01:33:29;;;;;;;3.60;3.30;;;;;;;;;;6128321;23;20021;-79
2022/11/11 01:35:56;;;;;;;0.00;0.00;;;;;;;;;;6127489;23;20012;-79
2022/11/11 01:38:22;;;;;;;0.00;0.00;;;;;;;;;;6101574;23;20053;-78
2022/11/11 01:40:49;;;;;;;0.00;0.00;;;;;;;;;;6127152;23;20013;-78
2022/11/11 01:43:17;;;;;;;0.00;0.00;;;;;;;;;;6127308;23;20009;-78
2022/11/11 01:45:58;;;;;;;1.33;1.33;;;;;;;;;;6127010;23;20029;-78
2022/11/11 01:51:20;;;;;;;0.30;0.30;;;;;;;;;;6127339;23;20029;-79
2022/11/11 01:53:49;;;;;;;0.00;0.00;;;;;;;;;;6126072;23;19998;-76
2022/11/11 01:56:16;;;;;;;0.77;0.77;;;;;;;;;;6100680;23;20062;-76
2022/11/11 01:58:42;;;;;;;40.63;38.20;;;;;;;;;;6129216;23;20625;-78
2022/11/11 02:01:09;;;;;;;0.00;0.00;;;;;;;;;;6142169;23;20449;-78
2022/11/11 02:03:38;;;;;;;0.00;0.00;;;;;;;;;;6139021;23;20009;-76
2022/11/11 02:06:05;;;;;;;0.00;0.00;;;;;;;;;;6137935;23;20419;-80
2022/11/11 02:08:34;;;;;;;0.00;0.00;;;;;;;;;;6102454;23;20006;-79
2022/11/11 02:11:06;;;;;;;0.53;0.53;;;;;;;;;;6126975;23;20002;-80
2022/11/11 02:16:18;;;;;;;0.10;0.10;;;;;;;;;;6126604;23;20040;-79
2022/11/11 02:18:45;;;;;;;4.43;4.23;;;;;;;;;;6125876;23;20002;-78
2022/11/11 02:21:13;;;;;;;0.00;0.00;;;;;;;;;;6127929;23;20010;-80
2022/11/11 02:23:43;;;;;;;0.10;0.10;;;;;;;;;;6128191;23;20053;-77
2022/11/11 02:26:10;;;;;;;0.77;0.77;;;;;;;;;;6135391;23;20280;-79
2022/11/11 02:28:37;;;;;;;0.00;0.00;;;;;;;;;;6126692;23;20034;-78
2022/11/11 02:31:04;;;;;;;0.00;0.00;;;;;;;;;;6125956;23;20002;-79
2022/11/11 02:33:30;;;;;;;0.00;0.00;;;;;;;;;;6101313;23;20427;-81
2022/11/11 02:35:58;;;;;;;8.65;2.15;;;;;;;;;;6100629;23;20061;-79
2022/11/11 02:38:25;;;;;;;0.52;0.52;;;;;;;;;;6127364;23;20063;-80
2022/11/11 02:43:39;;;;;;;8.00;6.47;;;;;;;;;;6126586;23;20494;-81
2022/11/11 02:46:06;;;;;;;3.40;1.63;;;;;;;;;;6099628;23;20014;-81
2022/11/11 02:48:33;;;;;;;4.55;3.35;;;;;;;;;;6099235;23;20507;-81
2022/11/11 02:51:02;;;;;;;0.10;0.10;;;;;;;;;;6098700;23;20002;-80
2022/11/11 02:53:29;;;;;;;3.67;2.15;;;;;;;;;;6098735;23;20083;-80
2022/11/11 02:55:55;;;;;;;1.40;1.35;;;;;;;;;;6100237;23;20029;-79
2022/11/11 02:58:22;;;;;;;0.00;0.00;;;;;;;;;;6100383;23;20013;-79
2022/11/11 03:00:48;;;;;;;5.15;3.33;;;;;;;;;;6127568;23;20014;-79
2022/11/11 03:03:14;;;;;;;3.03;2.13;;;;;;;;;;6097730;23;20013;-78
2022/11/11 03:05:41;;;;;;;6.38;5.90;;;;;;;;;;6098152;23;20005;-80
2022/11/11 03:08:07;;;;;;;14.68;13.45;;;;;;;;;;6096574;23;20045;-79
2022/11/11 03:10:34;;;;;;;0.20;0.20;;;;;;;;;;6100251;23;20006;-80
2022/11/11 03:13:00;;;;;;;0.00;0.00;;;;;;;;;;6100469;23;20006;-77
2022/11/11 03:15:27;;;;;;;0.65;0.65;;;;;;;;;;6098910;23;20278;-79
2022/11/11 03:17:53;;;;;;;0.00;0.00;;;;;;;;;;6099142;23;20018;-78
2022/11/11 03:23:15;;;;;;;0.70;0.70;;;;;;;;;;6125426;23;20097;-79
2022/11/11 03:25:45;;;;;;;1.02;0.82;;;;;;;;;;6098284;23;20013;-79
2022/11/11 03:28:18;;;;;;;24.92;4.80;;;;;;;;;;6125222;23;20447;-80
2022/11/11 03:30:46;;;;;;;0.20;0.20;;;;;;;;;;6099570;23;20016;-78
2022/11/11 03:33:12;;;;;;;3.33;1.65;;;;;;;;;;6124478;23;20026;-79
2022/11/11 03:35:39;;;;;;;0.00;0.00;;;;;;;;;;6097840;23;20018;-78
2022/11/11 03:38:22;;;;;;;13.30;5.78;;;;;;;;;;6123569;23;20022;-79
2022/11/11 03:40:49;;;;;;;5.53;5.05;;;;;;;;;;6123551;23;20006;-79
2022/11/11 03:43:17;;;;;;;16.92;6.60;;;;;;;;;;6124111;23;20006;-78
2022/11/11 03:45:43;;;;;;;12.98;5.28;;;;;;;;;;6123192;23;20006;-78
2022/11/11 03:48:10;;;;;;;15.10;11.30;;;;;;;;;;6125880;23;20008;-80
2022/11/11 03:50:37;;;;;;;17.35;12.55;;;;;;;;;;6100077;23;20410;-77
2022/11/11 03:53:03;;;;;;;35.63;14.60;;;;;;;;;;6124154;23;20014;-78
2022/11/11 03:55:30;;;;;;;21.90;14.70;;;;;;;;;;6099058;23;20073;-77
2022/11/11 03:57:56;;;;;;;8.15;5.82;;;;;;;;;;6125407;23;20100;-79
2022/11/11 04:00:24;;;;;;;8.00;7.18;;;;;;;;;;6106708;23;20022;-80
2022/11/11 04:11:16;;;;;;;10.63;3.00;;;;;;;;;;6131825;23;20343;-77
2022/11/11 04:16:30;;;;;;;18.17;9.90;;;;;;;;;;6128368;23;20073;-77
2022/11/11 04:21:44;;;;;;;24.58;12.20;;;;;;;;;;6142854;23;20056;-80
2022/11/11 04:27:02;;;;;;;17.63;9.27;;;;;;;;;;6136976;23;20021;-80
2022/11/11 04:29:29;;;;;;;10.70;7.50;;;;;;;;;;6142268;23;19990;-79
2022/11/11 04:34:54;;;;;;;12.30;9.65;;;;;;;;;;6130545;23;20037;-81
2022/11/11 04:37:21;;;;;;;15.27;7.15;;;;;;;;;;6127125;23;20006;-81
2022/11/11 04:42:35;;;;;;;10.82;5.97;;;;;;;;;;6126986;23;20021;-80
2022/11/11 04:47:56;;;;;;;22.02;11.18;;;;;;;;;;6127004;23;20053;-80
2022/11/11 04:50:45;;;;;;;24.58;12.48;;;;;;;;;;6133801;23;20002;-81
2022/11/11 04:53:13;;;;;;;29.67;12.60;;;;;;;;;;6107168;23;20001;-78
2022/11/11 04:58:26;;;;;;;48.40;19.13;;;;;;;;;;6144584;23;20091;-79
2022/11/11 05:00:53;;;;;;;16.73;7.20;;;;;;;;;;6118552;23;20029;-79
2022/11/11 05:03:22;;;;;;;5.97;3.90;;;;;;;;;;6144479;23;20073;-80
2022/11/11 05:08:56;;;;;;;9.63;6.63;;;;;;;;;;6127100;23;20296;-82
2022/11/11 05:11:30;;;;;;;7.05;6.50;;;;;;;;;;6099977;23;20084;-81
2022/11/11 05:22:17;;;;;;;28.23;14.95;;;;;;;;;;6125911;23;20017;-80
2022/11/11 05:27:28;;;;;;;20.98;12.88;;;;;;;;;;6125547;23;20021;-78
2022/11/11 05:29:55;;;;;;;25.75;15.55;;;;;;;;;;6126443;23;20005;-79
2022/11/11 05:32:22;;;;;;;2.28;2.15;;;;;;;;;;6125653;23;20056;-80
2022/11/11 05:34:48;;;;;;;4.97;3.80;;;;;;;;;;6099662;23;20093;-80
2022/11/11 05:37:15;;;;;;;14.30;7.88;;;;;;;;;;6125584;23;20035;-80
2022/11/11 05:39:47;;;;;;;4.97;4.55;;;;;;;;;;6141429;23;20419;-80
2022/11/11 05:42:14;;;;;;;4.05;3.75;;;;;;;;;;6134007;23;20010;-80
2022/11/11 05:44:40;;;;;;;13.30;10.40;;;;;;;;;;6126188;23;20006;-81
2022/11/11 05:47:06;;;;;;;14.45;7.40;;;;;;;;;;6095955;23;20010;-78
2022/11/11 05:49:33;;;;;;;9.95;3.30;;;;;;;;;;6095351;23;20029;-77
2022/11/11 05:51:59;;;;;;;14.00;9.45;;;;;;;;;;6125651;23;20388;-85
2022/11/11 05:54:28;;;;;;;3.58;3.35;;;;;;;;;;6126628;23;20005;-86
2022/11/11 05:56:55;;;;;;;0.65;0.65;;;;;;;;;;6100695;23;20423;-84
2022/11/11 05:59:21;;;;;;;19.70;9.48;;;;;;;;;;6102202;23;20042;-85
2022/11/11 06:01:48;;;;;;;5.82;3.17;;;;;;;;;;6100421;23;20032;-87
2022/11/11 06:04:14;;;;;;;8.70;5.22;;;;;;;;;;6100973;23;20088;-86
2022/11/11 06:06:40;;;;;;;7.38;2.75;;;;;;;;;;6100701;23;20013;-86
2022/11/11 06:09:07;;;;;;;4.55;4.10;;;;;;;;;;6101593;23;20449;-87
2022/11/11 06:11:33;;;;;;;1.45;1.17;;;;;;;;;;6100793;23;20016;-80
2022/11/11 06:14:00;;;;;;;11.50;5.28;;;;;;;;;;6129350;23;20052;-86
2022/11/11 06:16:28;;;;;;;4.60;4.32;;;;;;;;;;6105308;23;20009;-89
2022/11/11 06:18:55;;;;;;;6.78;6.35;;;;;;;;;;6109521;23;20527;-89
2022/11/11 06:21:21;;;;;;;0.47;0.47;;;;;;;;;;6132210;23;20001;-87
2022/11/11 06:23:50;;;;;;;0.88;0.50;;;;;;;;;;6114512;23;20006;-86
2022/11/11 06:26:16;;;;;;;9.13;8.68;;;;;;;;;;6143694;23;19998;-87
2022/11/11 06:28:44;;;;;;;4.47;4.18;;;;;;;;;;6105286;23;20033;-88
2022/11/11 06:31:12;;;;;;;6.35;1.90;;;;;;;;;;6101189;23;20009;-82
2022/11/11 06:33:39;;;;;;;17.17;15.95;;;;;;;;;;6108078;23;20006;-81
2022/11/11 06:36:06;;;;;;;1.55;1.55;;;;;;;;;;6101808;23;20010;-83
2022/11/11 06:38:32;;;;;;;5.43;4.90;;;;;;;;;;6129128;23;20024;-88
2022/11/11 06:40:59;;;;;;;2.28;2.17;;;;;;;;;;6102882;23;20030;-84
2022/11/11 06:43:25;;;;;;;1.35;1.30;;;;;;;;;;6101699;23;20032;-86
2022/11/11 06:45:53;;;;;;;1.55;1.45;;;;;;;;;;6098634;23;20013;-86
2022/11/11 06:48:20;;;;;;;3.30;1.80;;;;;;;;;;6100464;23;20005;-85
2022/11/11 06:50:47;;;;;;;10.65;9.63;;;;;;;;;;6099545;23;20006;-84
2022/11/11 06:53:15;;;;;;;3.42;1.80;;;;;;;;;;6125874;23;20002;-86
2022/11/11 06:55:42;;;;;;;6.03;5.45;;;;;;;;;;6100089;23;20057;-86
2022/11/11 06:58:09;;;;;;;14.48;10.02;;;;;;;;;;6122722;23;20028;-86
2022/11/11 07:00:36;;;;;;;25.00;13.57;;;;;;;;;;6148553;23;20022;-84
2022/11/11 07:03:03;;;;;;;3.40;3.20;;;;;;;;;;6111320;23;20118;-86
2022/11/11 07:05:30;;;;;;;3.22;3.03;;;;;;;;;;6101746;23;20009;-85
2022/11/11 07:07:56;;;;;;;7.50;6.80;;;;;;;;;;6099674;23;20025;-85
2022/11/11 07:10:23;;;;;;;3.05;2.85;;;;;;;;;;6125596;23;20439;-87
2022/11/11 07:12:49;;;;;;;4.97;3.00;;;;;;;;;;6126494;23;20335;-83
2022/11/11 07:15:16;;;;;;;11.32;6.22;;;;;;;;;;6126262;23;20009;-86
2022/11/11 07:17:42;;;;;;;15.75;10.23;;;;;;;;;;6102032;23;20032;-88
2022/11/11 07:20:09;;;;;;;18.90;9.48;;;;;;;;;;6101452;23;20084;-85
2022/11/11 07:22:36;;;;;;;4.82;1.88;;;;;;;;;;6100100;23;20006;-85
2022/11/11 07:25:03;;;;;;;10.85;9.38;;;;;;;;;;6100868;23;20107;-86
2022/11/11 07:27:29;;;;;;;9.93;8.38;;;;;;;;;;6101209;23;20057;-85
2022/11/11 07:29:55;;;;;;;2.45;2.30;;;;;;;;;;6105346;23;20008;-83
2022/11/11 07:32:22;;;;;;;7.20;6.90;;;;;;;;;;6126035;23;20024;-82
2022/11/11 07:34:51;;;;;;;7.10;6.38;;;;;;;;;;6102412;23;20010;-81
2022/11/11 07:37:18;;;;;;;9.93;8.88;;;;;;;;;;6126119;23;20006;-79
2022/11/11 07:39:44;;;;;;;7.47;6.38;;;;;;;;;;6124628;23;19998;-79
2022/11/11 07:42:11;;;;;;;0.68;0.68;;;;;;;;;;6125024;23;20002;-78
2022/11/11 07:44:37;;;;;;;15.57;10.93;;;;;;;;;;6125384;23;20006;-79
2022/11/11 07:47:04;;;;;;;7.43;3.88;;;;;;;;;;6131597;23;20002;-79
2022/11/11 07:49:30;;;;;;;6.78;6.13;;;;;;;;;;6132836;23;20423;-79
2022/11/11 07:51:56;;;;;;;29.52;19.58;;;;;;;;;;6128026;23;20002;-78
2022/11/11 07:54:22;;;;;;;7.28;6.68;;;;;;;;;;6099956;23;20037;-82
2022/11/11 07:56:49;;;;;;;11.40;5.53;;;;;;;;;;6137462;23;20006;-80
2022/11/11 07:59:15;;;;;;;10.02;8.65;;;;;;;;;;6146140;23;20018;-77
2022/11/11 08:01:41;;;;;;;7.30;6.25;;;;;;;;;;6120434;23;20029;-80
2022/11/11 08:04:08;;;;;;;4.55;4.20;;;;;;;;;;6110295;23;20029;-82
2022/11/11 08:06:34;;;;;;;0.30;0.30;;;;;;;;;;6125190;23;20077;-78
2022/11/11 08:09:00;;;;;;;6.68;5.93;;;;;;;;;;6126931;23;20034;-79
2022/11/11 08:14:12;;;;;;;10.95;8.80;;;;;;;;;;6123821;23;20069;-80
2022/11/11 08:16:38;;;;;;;4.28;4.07;;;;;;;;;;6124942;23;20057;-80
2022/11/11 08:19:04;;;;;;;10.23;6.68;;;;;;;;;;6122591;23;20037;-80
2022/11/11 08:21:31;;;;;;;3.83;3.53;;;;;;;;;;6124193;23;20002;-81
2022/11/11 08:23:57;;;;;;;2.87;2.57;;;;;;;;;;6126427;23;20005;-82
2022/11/11 08:26:23;;;;;;;6.20;4.53;;;;;;;;;;6127912;23;20187;-79
2022/11/11 08:28:52;;;;;;;7.57;5.88;;;;;;;;;;6126454;23;20066;-82
2022/11/11 08:31:19;;;;;;;10.95;8.30;;;;;;;;;;6101065;23;20010;-83
2022/11/11 08:33:45;;;;;;;6.70;5.35;;;;;;;;;;6123972;23;20005;-81
2022/11/11 08:36:20;;;;;;;6.28;5.80;;;;;;;;;;6100878;23;20013;-81
2022/11/11 08:38:46;;;;;;;11.52;10.23;;;;;;;;;;6125431;23;20002;-81
2022/11/11 08:41:13;;;;;;;3.97;3.72;;;;;;;;;;6126684;23;20006;-86
2022/11/11 08:43:39;;;;;;;1.77;1.67;;;;;;;;;;6098217;23;20017;-81
2022/11/11 08:46:05;;;;;;;18.88;17.08;;;;;;;;;;6098519;23;20017;-80
2022/11/11 08:48:32;;;;;;;4.32;1.98;;;;;;;;;;6125602;23;20025;-79
2022/11/11 08:50:59;;;;;;;22.92;15.73;;;;;;;;;;6100262;23;20050;-80
2022/11/11 08:53:27;;;;;;;23.27;13.48;;;;;;;;;;6125360;23;19999;-82
2022/11/11 08:55:53;;;;;;;15.02;10.77;;;;;;;;;;6124379;23;20054;-80
2022/11/11 08:58:20;;;;;;;22.05;12.35;;;;;;;;;;6125150;23;20006;-82
2022/11/11 09:00:49;;;;;;;14.88;13.85;;;;;;;;;;6124580;23;20097;-82
2022/11/11 09:03:15;;;;;;;2.95;2.75;;;;;;;;;;6128199;23;20040;-84
2022/11/11 09:05:43;;;;;;;31.98;18.38;;;;;;;;;;6100700;23;20014;-82
2022/11/11 09:08:09;;;;;;;1.83;1.75;;;;;;;;;;6102199;23;20088;-82
2022/11/11 09:10:36;;;;;;;0.10;0.10;;;;;;;;;;6105658;23;20026;-85
2022/11/11 09:13:02;;;;;;;2.35;2.20;;;;;;;;;;6107518;23;20025;-84
2022/11/11 09:15:29;;;;;;;4.00;3.70;;;;;;;;;;6104469;23;20069;-85
2022/11/11 09:17:56;;;;;;;6.75;6.45;;;;;;;;;;6105770;23;20081;-83
2022/11/11 09:20:23;;;;;;;18.02;3.28;;;;;;;;;;6106425;23;20013;-82
2022/11/11 09:22:50;;;;;;;4.72;4.28;;;;;;;;;;6109835;23;20013;-82
2022/11/11 09:25:16;;;;;;;5.35;5.05;;;;;;;;;;6110473;23;20094;-85
2022/11/11 09:27:43;;;;;;;17.35;12.32;;;;;;;;;;6121289;23;20097;-88
2022/11/11 09:30:10;;;;;;;1.02;1.00;;;;;;;;;;6122411;23;20014;-84
2022/11/11 09:32:37;;;;;;;32.78;18.83;;;;;;;;;;6115528;23;20017;-87
2022/11/11 09:35:04;;;;;;;7.65;7.13;;;;;;;;;;6118318;23;20017;-85
2022/11/11 09:37:30;;;;;;;7.82;5.97;;;;;;;;;;6115463;23;20371;-86
2022/11/11 09:39:56;;;;;;;5.80;5.35;;;;;;;;;;6103673;23;20445;-79
2022/11/11 09:42:40;;;;;;;2.50;2.38;;;;;;;;;;6103606;23;20006;-84
2022/11/11 09:45:14;;;;;;;3.40;2.85;;;;;;;;;;6126332;23;20002;-71
2022/11/11 09:47:52;;;;;;;6.50;1.75;;;;;;;;;;6124197;23;20064;-70
2022/11/11 09:50:22;;;;;;;2.53;2.33;;;;;;;;;;6124834;23;20435;-69
2022/11/11 09:52:52;;;;;;;3.63;3.42;;;;;;;;;;6098009;23;20010;-71
2022/11/11 09:55:24;;;;;;;12.18;9.25;;;;;;;;;;6099425;23;20041;-72
2022/11/11 09:57:57;;;;;;;5.00;3.83;;;;;;;;;;6124471;23;20052;-72
2022/11/11 10:00:37;;;;;;;7.30;6.45;;;;;;;;;;6125013;23;20045;-70
2022/11/11 10:03:09;;;;;;;11.68;5.38;;;;;;;;;;6124022;23;20085;-72
2022/11/11 10:05:45;;;;;;;5.00;4.68;;;;;;;;;;6098517;23;20006;-73
2022/11/11 10:08:12;;;;;;;0.52;0.52;;;;;;;;;;6124179;23;20714;-73
2022/11/11 10:10:43;;;;;;;0.20;0.20;;;;;;;;;;6099166;23;20025;-71
2022/11/11 10:13:14;;;;;;;1.95;1.95;;;;;;;;;;6098728;23;20029;-69
2022/11/11 10:15:45;;;;;;;9.65;4.80;;;;;;;;;;6098820;23;20016;-72
2022/11/11 10:18:34;;;;;;;0.90;0.90;;;;;;;;;;6124052;23;20502;-71
2022/11/11 10:21:05;;;;;;;9.18;5.20;;;;;;;;;;6124525;23;20021;-72
2022/11/11 10:23:37;;;;;;;14.40;13.65;;;;;;;;;;6125042;23;20083;-71
2022/11/11 10:26:14;;;;;;;2.95;2.80;;;;;;;;;;6124306;23;20462;-74
2022/11/11 10:28:44;;;;;;;37.13;7.95;;;;;;;;;;6127067;23;20005;-73
2022/11/11 10:31:15;;;;;;;4.65;3.72;;;;;;;;;;6098813;23;20079;-73
2022/11/11 10:33:58;;;;;;;0.00;0.00;;;;;;;;;;6098818;23;20006;-72
2022/11/11 10:36:26;;;;;;;0.90;0.88;;;;;;;;;;6127882;23;20010;-74
2022/11/11 10:38:55;;;;;;;2.78;2.60;;;;;;;;;;6126538;23;20005;-72
2022/11/11 10:41:33;;;;;;;2.83;2.58;;;;;;;;;;6124214;23;19998;-73
2022/11/11 10:44:00;;;;;;;2.20;2.00;;;;;;;;;;6123118;23;20002;-73
2022/11/11 10:46:29;;;;;;;8.80;5.32;;;;;;;;;;6097493;23;20010;-75
2022/11/11 10:48:58;;;;;;;9.35;5.35;;;;;;;;;;6098409;23;20342;-73
2022/11/11 10:51:26;;;;;;;4.95;4.60;;;;;;;;;;6124376;23;20006;-74
2022/11/11 10:53:59;;;;;;;2.10;2.00;;;;;;;;;;6095418;23;20038;-73
2022/11/11 10:56:44;;;;;;;0.95;0.88;;;;;;;;;;6122688;23;20005;-73
2022/11/11 10:59:13;;;;;;;4.38;4.03;;;;;;;;;;6121429;23;20326;-73
2022/11/11 11:01:47;;;;;;;0.50;0.47;;;;;;;;;;6097979;23;20492;-73
2022/11/11 11:04:32;;;;;;;0.00;0.00;;;;;;;;;;6123353;23;20029;-73
2022/11/11 11:06:59;;;;;;;0.00;0.00;;;;;;;;;;6122699;23;20008;-75
2022/11/11 11:09:37;;;;;;;0.00;0.00;;;;;;;;;;6097569;23;20010;-75
2022/11/11 11:12:07;;;;;;;1.65;1.55;;;;;;;;;;6094812;23;20006;-75
2022/11/11 11:14:39;;;;;;;3.03;2.83;;;;;;;;;;6095509;23;20010;-75
2022/11/11 11:17:13;;;;;;;0.05;0.05;;;;;;;;;;6094608;23;20009;-75
2022/11/11 11:19:39;;;;;;;3.35;3.05;;;;;;;;;;6092626;23;20009;-71
2022/11/11 11:22:06;;;;;;;0.03;0.03;;;;;;;;;;6118405;23;20335;-73
2022/11/11 11:24:34;;;;;;;2.72;2.53;;;;;;;;;;6095626;23;20017;-73
2022/11/11 11:27:02;;;;;;;9.70;9.10;;;;;;;;;;6121823;23;20009;-72
2022/11/11 11:29:44;;;;;;;16.40;12.95;;;;;;;;;;6096743;23;20020;-71
2022/11/11 11:32:20;;;;;;;10.52;6.68;;;;;;;;;;6123388;23;20002;-72
2022/11/11 11:34:47;;;;;;;6.20;5.65;;;;;;;;;;6098267;23;20454;-73
2022/11/11 11:37:14;;;;;;;26.42;15.13;;;;;;;;;;6097967;23;20009;-71
2022/11/11 11:39:40;;;;;;;3.63;3.42;;;;;;;;;;6098576;23;20006;-73
2022/11/11 11:42:07;;;;;;;43.08;25.80;;;;;;;;;;6098129;23;20457;-72
2022/11/11 11:44:34;;;;;;;26.77;12.27;;;;;;;;;;6121946;23;20077;-72
2022/11/11 11:47:11;;;;;;;10.18;7.47;;;;;;;;;;6092878;23;20353;-73
2022/11/11 11:49:40;;;;;;;42.92;23.17;;;;;;;;;;6121220;23;20014;-72
2022/11/11 11:52:13;;;;;;;8.32;7.78;;;;;;;;;;6118427;23;20552;-73
2022/11/11 11:54:55;;;;;;;39.95;21.25;;;;;;;;;;6091743;23;20089;-74
2022/11/11 11:57:27;;;;;;;5.38;3.92;;;;;;;;;;6115941;23;20479;-73
2022/11/11 12:00:05;;;;;;;4.63;4.25;;;;;;;;;;6117855;23;20092;-72
2022/11/11 12:02:37;;;;;;;8.35;5.97;;;;;;;;;;6118924;23;20025;-72
2022/11/11 12:05:17;;;;;;;16.10;14.95;;;;;;;;;;6120936;23;20451;-72
2022/11/11 12:08:00;;;;;;;10.73;10.02;;;;;;;;;;6116776;23;20009;-75
2022/11/11 12:10:30;;;;;;;65.28;24.52;;;;;;;;;;6090244;23;20010;-72
2022/11/11 12:13:00;;;;;;;17.85;11.93;;;;;;;;;;6120242;23;20439;-76
2022/11/11 12:15:29;;;;;;;21.02;14.80;;;;;;;;;;6124162;23;20328;-74
2022/11/11 12:18:08;;;;;;;35.88;16.90;;;;;;;;;;6119074;23;20101;-74
2022/11/11 12:20:43;;;;;;;3.60;1.17;;;;;;;;;;6120394;23;20002;-73
2022/11/11 12:23:38;;;;;;;2.38;2.25;;;;;;;;;;6123550;23;19998;-74
2022/11/11 12:26:04;;;;;;;41.35;23.27;;;;;;;;;;6098070;23;20034;-74
2022/11/11 12:28:31;;;;;;;24.17;16.42;;;;;;;;;;6125236;23;20331;-76
2022/11/11 12:31:26;;;;;;;44.35;21.25;;;;;;;;;;6099641;23;20391;-73
2022/11/11 12:34:05;;;;;;;4.90;4.55;;;;;;;;;;6107019;23;20006;-74
2022/11/11 12:36:34;;;;;;;5.13;4.88;;;;;;;;;;6096518;23;20017;-75
2022/11/11 12:39:10;;;;;;;8.13;5.72;;;;;;;;;;6125769;23;20002;-75
2022/11/11 12:41:39;;;;;;;12.15;7.97;;;;;;;;;;6127004;23;20088;-76
2022/11/11 12:44:05;;;;;;;36.30;19.30;;;;;;;;;;6126473;23;20028;-76
2022/11/11 12:46:39;;;;;;;3.05;2.83;;;;;;;;;;6100705;23;20030;-74
2022/11/11 12:49:18;;;;;;;13.02;11.90;;;;;;;;;;6126901;23;20041;-75
2022/11/11 12:52:10;;;;;;;3.53;3.25;;;;;;;;;;6127144;23;20006;-74
2022/11/11 12:54:46;;;;;;;2.40;1.42;;;;;;;;;;6094796;23;20010;-74
2022/11/11 12:57:30;;;;;;;30.25;8.93;;;;;;;;;;6125793;23;20006;-74
2022/11/11 12:59:57;;;;;;;16.55;15.80;;;;;;;;;;6126256;23;20018;-74
2022/11/11 13:02:23;;;;;;;0.68;0.68;;;;;;;;;;6126288;23;20332;-73
2022/11/11 13:04:55;;;;;;;8.02;7.53;;;;;;;;;;6100930;23;20012;-73
2022/11/11 13:07:30;;;;;;;5.80;5.32;;;;;;;;;;6127009;23;20072;-73
2022/11/11 13:10:14;;;;;;;12.77;10.77;;;;;;;;;;6126609;23;20427;-73
2022/11/11 13:12:48;;;;;;;5.32;4.85;;;;;;;;;;6125089;23;20069;-74
2022/11/11 13:15:22;;;;;;;0.00;0.00;;;;;;;;;;6100412;23;20013;-73
2022/11/11 13:17:48;;;;;;;16.83;12.45;;;;;;;;;;6099676;23;20016;-74
2022/11/11 13:20:24;;;;;;;18.00;15.35;;;;;;;;;;6100078;23;20002;-70
2022/11/11 13:22:50;;;;;;;8.25;7.47;;;;;;;;;;6126363;23;20056;-72
2022/11/11 13:25:28;;;;;;;42.58;8.95;;;;;;;;;;6124984;23;20002;-73
2022/11/11 13:28:06;;;;;;;3.75;3.60;;;;;;;;;;6125854;23;20008;-71
2022/11/11 13:30:38;;;;;;;11.45;10.63;;;;;;;;;;6100254;23;20010;-72
2022/11/11 13:33:07;;;;;;;4.82;4.55;;;;;;;;;;6100802;23;20010;-72
2022/11/11 13:35:33;;;;;;;2.00;1.90;;;;;;;;;;6100413;23;20006;-75
2022/11/11 13:38:00;;;;;;;0.00;0.00;;;;;;;;;;6125085;23;20006;-73
2022/11/11 13:40:35;;;;;;;20.95;19.00;;;;;;;;;;6100243;23;20010;-73
2022/11/11 13:43:02;;;;;;;0.73;0.73;;;;;;;;;;6100148;23;20013;-74
2022/11/11 13:45:42;;;;;;;2.40;1.67;;;;;;;;;;6126257;23;20086;-74
2022/11/11 13:48:17;;;;;;;3.83;3.72;;;;;;;;;;6125579;23;20595;-72
2022/11/11 13:50:44;;;;;;;6.80;2.45;;;;;;;;;;6099705;23;20386;-70
2022/11/11 13:53:28;;;;;;;8.93;7.03;;;;;;;;;;6125816;23;20006;-70
2022/11/11 13:56:00;;;;;;;3.03;2.90;;;;;;;;;;6099906;23;20027;-72
2022/11/11 13:58:28;;;;;;;17.27;9.30;;;;;;;;;;6099955;23;20006;-72
2022/11/11 14:00:59;;;;;;;3.85;3.22;;;;;;;;;;6126817;23;20013;-72
2022/11/11 14:03:25;;;;;;;10.38;9.52;;;;;;;;;;6100073;23;20052;-72
2022/11/11 14:06:10;;;;;;;3.63;3.17;;;;;;;;;;6099441;23;20445;-73
2022/11/11 14:08:46;;;;;;;9.45;6.55;;;;;;;;;;6099295;23;20014;-73
2022/11/11 14:11:25;;;;;;;0.08;0.08;;;;;;;;;;6099948;23;20014;-72
2022/11/11 14:13:52;;;;;;;0.00;0.00;;;;;;;;;;6099855;23;20041;-71
2022/11/11 14:16:36;;;;;;;2.85;2.60;;;;;;;;;;6099990;23;20435;-72
2022/11/11 14:19:32;;;;;;;0.57;0.57;;;;;;;;;;6125647;23;20065;-72
2022/11/11 14:21:59;;;;;;;2.15;2.05;;;;;;;;;;6102210;23;20470;-71
2022/11/11 14:24:35;;;;;;;2.38;2.30;;;;;;;;;;6127261;23;20308;-71
2022/11/11 14:27:03;;;;;;;17.08;4.30;;;;;;;;;;6101340;23;20001;-71
2022/11/11 14:29:33;;;;;;;0.40;0.40;;;;;;;;;;6128068;23;20069;-73
2022/11/11 14:32:20;;;;;;;5.07;4.57;;;;;;;;;;6126869;23;20002;-72
2022/11/11 14:35:01;;;;;;;4.80;4.47;;;;;;;;;;6070187;23;20025;-72
2022/11/11 14:37:28;;;;;;;2.53;2.42;;;;;;;;;;6143080;23;20071;-71
2022/11/11 14:39:55;;;;;;;1.45;1.45;;;;;;;;;;6103323;23;20085;-72
2022/11/11 14:42:30;;;;;;;1.17;1.15;;;;;;;;;;6125491;23;20002;-73
2022/11/11 14:44:56;;;;;;;0.00;0.00;;;;;;;;;;6099325;23;20012;-72
2022/11/11 14:47:24;;;;;;;0.55;0.55;;;;;;;;;;6125354;23;20002;-72
2022/11/11 14:49:53;;;;;;;0.00;0.00;;;;;;;;;;6125262;23;20080;-72
2022/11/11 14:52:19;;;;;;;8.27;7.65;;;;;;;;;;6125822;23;20343;-72
2022/11/11 14:55:06;;;;;;;0.10;0.10;;;;;;;;;;6123654;23;20332;-73
2022/11/11 14:58:05;;;;;;;0.52;0.52;;;;;;;;;;6123596;23;20002;-76
2022/11/11 15:00:33;;;;;;;0.00;0.00;;;;;;;;;;6037144;23;20018;-73
2022/11/11 15:03:17;;;;;;;1.38;1.38;;;;;;;;;;6095519;23;20135;-72
2022/11/11 15:05:56;;;;;;;0.05;0.05;;;;;;;;;;6095582;23;20014;-71
2022/11/11 15:08:29;;;;;;;0.00;0.00;;;;;;;;;;6070674;23;20017;-71
2022/11/11 15:11:01;;;;;;;0.03;0.03;;;;;;;;;;6096008;23;20003;-73
2022/11/11 15:13:37;;;;;;;1.33;1.30;;;;;;;;;;6095761;23;20074;-72
2022/11/11 15:16:22;;;;;;;0.10;0.10;;;;;;;;;;6096366;23;20481;-71
2022/11/11 15:18:54;;;;;;;0.00;0.00;;;;;;;;;;6096813;23;20003;-74
2022/11/11 15:21:28;;;;;;;1.75;1.00;;;;;;;;;;6095677;23;20065;-72
2022/11/11 15:24:02;;;;;;;37.17;10.38;;;;;;;;;;6070736;23;20007;-73
2022/11/11 15:26:28;;;;;;;5.25;4.95;;;;;;;;;;6069634;23;20017;-73
2022/11/11 15:28:55;;;;;;;10.00;6.18;;;;;;;;;;6069859;23;20503;-71
2022/11/11 15:31:21;;;;;;;2.25;2.15;;;;;;;;;;6070502;23;20444;-72
2022/11/11 15:34:01;;;;;;;8.65;8.15;;;;;;;;;;6096006;23;20002;-71
2022/11/11 15:36:36;;;;;;;2.13;2.03;;;;;;;;;;6096048;23;20003;-72
2022/11/11 15:39:07;;;;;;;2.03;2.00;;;;;;;;;;6095539;23;19999;-72
2022/11/11 15:41:36;;;;;;;11.98;10.73;;;;;;;;;;6070086;23;20032;-70
2022/11/11 15:44:06;;;;;;;0.10;0.10;;;;;;;;;;6096112;23;20077;-71
2022/11/11 15:46:35;;;;;;;3.10;2.90;;;;;;;;;;6070701;23;20041;-72
2022/11/11 15:49:02;;;;;;;2.97;2.88;;;;;;;;;;6070442;23;20011;-75
2022/11/11 15:51:29;;;;;;;3.38;3.20;;;;;;;;;;6069978;23;20045;-73
2022/11/11 15:54:21;;;;;;;0.00;0.00;;;;;;;;;;6070064;23;20013;-72
2022/11/11 15:56:48;;;;;;;0.10;0.10;;;;;;;;;;6082849;23;20017;-71
2022/11/11 15:59:18;;;;;;;0.40;0.40;;;;;;;;;;6104992;23;20041;-71
2022/11/11 16:01:44;;;;;;;1.38;1.38;;;;;;;;;;6098912;23;20075;-71
2022/11/11 16:04:16;;;;;;;1.48;1.48;;;;;;;;;;6124785;23;20002;-71